createdAt,value
2022-08-11T00:02:35.644Z,4.70
2022-08-11T00:05:08.232Z,4.63
2022-08-11T00:07:43.505Z,4.13
2022-08-11T00:10:14.171Z,4.07
2022-08-11T00:12:43.427Z,5.03
2022-08-11T00:15:12.680Z,4.37
2022-08-11T00:17:43.007Z,4.33
2022-08-11T00:20:16.524Z,4.47
2022-08-11T00:22:48.152Z,4.80
2022-08-11T00:25:19.312Z,4.33
2022-08-11T00:27:49.383Z,4.70
2022-08-11T00:30:18.038Z,4.53
2022-08-11T00:32:54.355Z,4.30
2022-08-11T00:35:54.228Z,4.40
2022-08-11T00:38:15.292Z,4.70
2022-08-11T00:40:45.707Z,3.80
2022-08-11T00:43:22.345Z,4.50
2022-08-11T00:46:12.090Z,5.10
2022-08-11T00:48:53.550Z,4.90
2022-08-11T00:51:27.023Z,4.50
2022-08-11T00:54:33.786Z,5.70
2022-08-11T00:57:43.276Z,5.10
2022-08-11T01:00:16.589Z,4.57
2022-08-11T01:03:03.637Z,5.87
2022-08-11T01:06:07.795Z,4.43
2022-08-11T01:09:17.875Z,5.10
2022-08-11T01:12:07.240Z,6.37
2022-08-11T01:14:52.171Z,7.47
2022-08-11T01:18:07.842Z,8.17
2022-08-11T01:21:05.343Z,5.90
2022-08-11T01:24:05.839Z,7.43
2022-08-11T01:27:19.457Z,4.43
2022-08-11T01:30:09.624Z,4.30
2022-08-11T01:33:10.264Z,4.37
2022-08-11T01:36:19.080Z,4.77
2022-08-11T01:39:23.481Z,5.17
2022-08-11T01:42:40.430Z,5.60
2022-08-11T01:45:14.056Z,5.20
2022-08-11T01:47:54.645Z,5.63
2022-08-11T01:50:30.243Z,6.27
2022-08-11T01:53:10.370Z,6.90
2022-08-11T01:55:51.521Z,5.10
2022-08-11T01:58:36.255Z,4.87
2022-08-11T02:01:32.742Z,4.80
2022-08-11T02:04:08.152Z,4.80
2022-08-11T02:06:57.261Z,6.10
2022-08-11T02:09:49.751Z,7.33
2022-08-11T02:12:28.758Z,9.10
2022-08-11T02:15:05.812Z,7.03
2022-08-11T02:17:43.341Z,5.20
2022-08-11T02:20:35.731Z,6.03
2022-08-11T02:24:06.706Z,4.77
2022-08-11T02:26:21.204Z,5.30
2022-08-11T02:29:03.246Z,4.63
2022-08-11T02:32:24.025Z,4.77
2022-08-11T02:35:00.221Z,7.53
2022-08-11T02:37:38.306Z,6.00
2022-08-11T02:40:19.288Z,7.73
2022-08-11T02:42:59.419Z,6.87
2022-08-11T02:45:36.354Z,5.83
2022-08-11T02:48:27.798Z,5.70
2022-08-11T02:51:06.227Z,4.97
2022-08-11T02:53:40.933Z,5.50
2022-08-11T02:56:15.718Z,5.47
2022-08-11T02:59:12.984Z,4.77
2022-08-11T03:01:49.307Z,5.43
2022-08-11T03:04:24.282Z,5.57
2022-08-11T03:07:28.639Z,5.60
2022-08-11T03:10:10.011Z,6.27
2022-08-11T03:13:02.351Z,7.70
2022-08-11T03:15:51.309Z,9.00
2022-08-11T03:18:26.912Z,6.30
2022-08-11T03:21:00.159Z,5.40
2022-08-11T03:23:32.408Z,5.73
2022-08-11T03:26:04.919Z,5.10
2022-08-11T03:28:36.433Z,4.53
2022-08-11T03:31:19.285Z,5.30
2022-08-11T03:34:06.832Z,6.27
2022-08-11T03:37:40.645Z,4.80
2022-08-11T03:40:43.168Z,7.20
2022-08-11T03:43:23.858Z,6.40
2022-08-11T03:45:59.717Z,6.63
2022-08-11T03:48:42.199Z,8.30
2022-08-11T03:51:18.854Z,8.40
2022-08-11T03:54:02.935Z,6.40
2022-08-11T03:57:00.647Z,4.80
2022-08-11T03:59:53.651Z,3.60
2022-08-11T04:02:40.583Z,6.67
2022-08-11T04:05:56.387Z,6.37
2022-08-11T04:08:59.197Z,7.43
2022-08-11T04:11:49.063Z,6.53
2022-08-11T04:15:01.066Z,9.00
2022-08-11T04:18:00.674Z,8.00
2022-08-11T04:21:16.677Z,8.57
2022-08-11T04:24:35.439Z,6.00
2022-08-11T04:27:08.861Z,5.33
2022-08-11T04:30:05.889Z,4.50
2022-08-11T04:33:20.924Z,4.50
2022-08-11T04:35:55.295Z,4.90
2022-08-11T04:38:46.624Z,6.20
2022-08-11T04:42:31.408Z,8.93
2022-08-11T04:45:27.704Z,10.50
2022-08-11T04:48:32.272Z,12.37
2022-08-11T04:51:35.882Z,14.33
2022-08-11T04:54:36.476Z,11.80
2022-08-11T04:57:41.592Z,11.90
2022-08-11T05:00:29.780Z,12.30
2022-08-11T05:03:35.586Z,8.47
2022-08-11T05:06:51.911Z,7.13
2022-08-11T05:10:05.096Z,5.50
2022-08-11T05:12:38.216Z,5.57
2022-08-11T05:15:24.878Z,7.87
2022-08-11T05:18:14.118Z,10.37
2022-08-11T05:21:05.856Z,15.73
2022-08-11T05:23:53.295Z,15.80
2022-08-11T05:26:47.780Z,15.07
2022-08-11T05:29:47.625Z,15.53
2022-08-11T05:32:35.408Z,14.60
2022-08-11T05:35:07.606Z,14.93
2022-08-11T05:37:53.442Z,11.00
2022-08-11T05:40:39.245Z,8.93
2022-08-11T05:43:30.964Z,6.33
2022-08-11T05:46:17.667Z,6.20
2022-08-11T05:49:04.951Z,6.63
2022-08-11T05:52:05.509Z,21.43
2022-08-11T05:54:59.564Z,16.43
2022-08-11T05:57:44.038Z,23.77
2022-08-11T06:00:20.442Z,19.17
2022-08-11T06:02:55.562Z,22.80
2022-08-11T06:05:25.204Z,20.43
2022-08-11T06:07:57.549Z,15.97
2022-08-11T06:10:28.450Z,12.07
2022-08-11T06:12:57.338Z,11.90
2022-08-11T06:15:27.084Z,8.60
2022-08-11T06:17:56.840Z,6.60
2022-08-11T06:20:25.712Z,6.23
2022-08-11T06:23:00.914Z,5.17
2022-08-11T06:25:36.036Z,4.50
2022-08-11T06:28:07.085Z,3.50
2022-08-11T06:30:40.589Z,3.63
2022-08-11T06:33:11.633Z,3.73
2022-08-11T06:35:53.440Z,3.67
2022-08-11T06:38:39.456Z,3.37
2022-08-11T06:41:32.014Z,3.27
2022-08-11T06:44:24.331Z,3.13
2022-08-11T06:46:56.068Z,3.40
2022-08-11T06:49:51.370Z,2.87
2022-08-11T06:52:34.138Z,3.30
2022-08-11T06:55:55.643Z,3.20
2022-08-11T06:58:18.354Z,3.23
2022-08-11T07:00:48.619Z,3.33
2022-08-11T07:03:19.851Z,2.80
2022-08-11T07:05:51.947Z,3.10
2022-08-11T07:09:14.371Z,2.10
2022-08-11T07:12:17.427Z,2.93
2022-08-11T07:15:09.357Z,3.13
2022-08-11T07:17:43.812Z,3.33
2022-08-11T07:20:31.961Z,3.00
2022-08-11T07:23:20.459Z,3.30
2022-08-11T07:26:08.710Z,2.40
2022-08-11T07:28:59.767Z,3.00
2022-08-11T07:31:33.513Z,2.50
2022-08-11T07:34:15.904Z,2.30
2022-08-11T07:36:51.407Z,2.50
2022-08-11T07:39:22.650Z,3.10
2022-08-11T07:41:52.709Z,2.80
2022-08-11T07:44:29.424Z,3.20
2022-08-11T07:47:18.759Z,2.77
2022-08-11T07:50:05.003Z,2.70
2022-08-11T07:52:38.338Z,2.63
2022-08-11T07:55:10.423Z,2.70
2022-08-11T07:58:15.050Z,2.77
2022-08-11T08:01:10.232Z,2.63
2022-08-11T08:04:02.566Z,2.60
2022-08-11T08:06:51.431Z,2.43
2022-08-11T08:09:38.660Z,2.10
2022-08-11T08:12:25.316Z,2.67
2022-08-11T08:15:12.568Z,2.53
2022-08-11T08:18:08.552Z,3.03
2022-08-11T08:20:46.810Z,2.40
2022-08-11T08:23:15.206Z,2.80
2022-08-11T08:25:45.557Z,3.03
2022-08-11T08:28:18.157Z,2.50
2022-08-11T08:30:48.392Z,2.70
2022-08-11T08:33:21.162Z,1.83
2022-08-11T08:35:55.789Z,2.40
2022-08-11T08:38:25.395Z,2.23
2022-08-11T08:40:56.481Z,2.70
2022-08-11T08:43:25.657Z,2.40
2022-08-11T08:45:57.023Z,2.30
2022-08-11T08:48:27.885Z,2.27
2022-08-11T08:51:16.740Z,2.40
2022-08-11T08:53:53.461Z,2.40
2022-08-11T08:56:28.447Z,2.27
2022-08-11T08:58:58.038Z,2.63
2022-08-11T09:01:26.675Z,2.40
2022-08-11T09:04:06.604Z,2.30
2022-08-11T09:06:43.060Z,1.97
2022-08-11T09:09:13.311Z,2.33
2022-08-11T09:11:53.632Z,2.23
2022-08-11T09:14:23.651Z,2.10
2022-08-11T09:16:52.205Z,1.90
2022-08-11T09:19:22.577Z,1.80
2022-08-11T09:22:06.150Z,2.00
2022-08-11T09:24:52.480Z,1.90
2022-08-11T09:27:21.639Z,1.87
2022-08-11T09:29:50.369Z,1.73
2022-08-11T09:32:21.411Z,2.33
2022-08-11T09:34:52.069Z,1.93
2022-08-11T09:37:56.026Z,1.50
2022-08-11T09:40:31.456Z,2.10
2022-08-11T09:43:20.217Z,2.10
2022-08-11T09:45:53.527Z,2.37
2022-08-11T09:48:22.328Z,2.10
2022-08-11T09:50:55.604Z,2.03
2022-08-11T09:53:35.711Z,2.37
2022-08-11T09:56:21.063Z,1.97
2022-08-11T09:58:49.395Z,2.20
2022-08-11T10:01:27.625Z,2.40
2022-08-11T10:04:01.801Z,1.87
2022-08-11T10:06:54.068Z,1.83
2022-08-11T10:09:25.339Z,1.70
2022-08-11T10:11:58.005Z,2.30
2022-08-11T10:14:45.470Z,1.70
2022-08-11T10:17:15.028Z,1.90
2022-08-11T10:19:44.764Z,2.10
2022-08-11T10:22:51.061Z,2.00
2022-08-11T10:25:37.518Z,1.90
2022-08-11T10:28:33.057Z,2.03
2022-08-11T10:31:16.493Z,1.93
2022-08-11T10:34:04.693Z,1.90
2022-08-11T10:36:35.685Z,2.57
2022-08-11T10:39:07.577Z,2.20
2022-08-11T10:42:07.746Z,2.30
2022-08-11T10:44:42.969Z,1.70
2022-08-11T10:47:31.662Z,1.83
2022-08-11T10:50:17.702Z,1.93
2022-08-11T10:53:04.054Z,2.17
2022-08-11T10:55:51.715Z,1.90
2022-08-11T10:58:37.819Z,2.10
2022-08-11T11:01:06.764Z,1.77
2022-08-11T11:03:36.810Z,2.40
2022-08-11T11:06:12.555Z,1.33
2022-08-11T11:09:04.159Z,2.37
2022-08-11T11:11:55.111Z,2.10
2022-08-11T11:14:41.631Z,2.60
2022-08-11T11:17:32.808Z,1.90
2022-08-11T11:20:02.091Z,1.33
2022-08-11T11:22:39.980Z,2.00
2022-08-11T11:25:22.949Z,2.10
2022-08-11T11:28:07.463Z,2.13
2022-08-11T11:30:41.305Z,1.90
2022-08-11T11:33:14.901Z,2.47
2022-08-11T11:35:51.049Z,1.60
2022-08-11T11:38:19.597Z,1.77
2022-08-11T11:41:08.981Z,1.60
2022-08-11T11:43:38.736Z,2.17
2022-08-11T11:46:10.900Z,1.50
2022-08-11T11:48:39.703Z,1.60
2022-08-11T11:51:08.139Z,1.60
2022-08-11T11:53:37.718Z,1.27
2022-08-11T11:56:06.614Z,1.70
2022-08-11T11:58:52.143Z,1.50
2022-08-11T12:01:25.307Z,2.07
2022-08-11T12:03:55.605Z,1.60
2022-08-11T12:06:25.395Z,1.43
2022-08-11T12:08:55.558Z,1.80
2022-08-11T12:11:43.578Z,1.80
2022-08-11T12:14:12.687Z,1.77
2022-08-11T12:16:43.939Z,1.90
2022-08-11T12:19:14.970Z,1.63
2022-08-11T12:22:05.190Z,1.40
2022-08-11T12:24:51.189Z,1.80
2022-08-11T12:27:25.335Z,1.57
2022-08-11T12:30:00.173Z,1.60
2022-08-11T12:32:33.301Z,1.77
2022-08-11T12:35:01.999Z,1.90
2022-08-11T12:37:33.277Z,1.80
2022-08-11T12:41:11.173Z,2.07
2022-08-11T12:43:37.407Z,2.47
2022-08-11T12:46:09.476Z,1.60
2022-08-11T12:49:13.584Z,1.83
2022-08-11T12:52:13.551Z,1.73
2022-08-11T12:55:13.938Z,1.30
2022-08-11T12:58:03.557Z,1.50
2022-08-11T13:00:49.511Z,1.73
2022-08-11T13:03:38.448Z,1.93
2022-08-11T13:06:09.564Z,1.33
2022-08-11T13:08:39.589Z,1.57
2022-08-11T13:11:56.985Z,1.60
2022-08-11T13:14:15.508Z,1.63
2022-08-11T13:17:02.683Z,2.00
2022-08-11T13:19:32.190Z,1.97
2022-08-11T13:22:02.547Z,1.60
2022-08-11T13:24:34.118Z,1.80
2022-08-11T13:27:03.120Z,1.77
2022-08-11T13:29:31.363Z,2.07
2022-08-11T13:32:01.016Z,1.60
2022-08-11T13:34:31.262Z,1.93
2022-08-11T13:37:04.294Z,1.60
2022-08-11T13:39:33.807Z,1.80
2022-08-11T13:42:03.772Z,1.70
2022-08-11T13:44:35.976Z,1.53
2022-08-11T13:47:06.579Z,2.03
2022-08-11T13:49:40.996Z,1.50
2022-08-11T13:52:14.162Z,1.80
2022-08-11T13:54:43.598Z,1.93
2022-08-11T13:58:07.180Z,1.87
2022-08-11T14:00:13.299Z,1.80
2022-08-11T14:02:54.851Z,2.03
2022-08-11T14:05:27.619Z,1.40
2022-08-11T14:08:01.392Z,1.80
2022-08-11T14:10:32.903Z,1.97
2022-08-11T14:13:21.818Z,1.37
2022-08-11T14:15:51.226Z,1.83
2022-08-11T14:18:20.905Z,1.70
2022-08-11T14:21:16.780Z,1.40
2022-08-11T14:23:48.072Z,1.53
2022-08-11T14:26:31.678Z,1.37
2022-08-11T14:29:03.268Z,2.07
2022-08-11T14:31:33.251Z,1.87
2022-08-11T14:34:03.495Z,1.90
2022-08-11T14:36:34.102Z,1.93
2022-08-11T14:39:07.186Z,1.90
2022-08-11T14:42:10.087Z,1.77
2022-08-11T14:45:02.008Z,1.50
2022-08-11T14:47:32.030Z,1.93
2022-08-11T14:50:11.848Z,1.67
2022-08-11T14:52:45.911Z,1.90
2022-08-11T14:55:33.178Z,3.10
2022-08-11T14:58:02.133Z,10.93
2022-08-11T15:00:31.603Z,2.50
2022-08-11T15:03:12.092Z,3.17
2022-08-11T15:05:55.939Z,1.77
2022-08-11T15:08:47.793Z,2.30
2022-08-11T15:11:37.492Z,1.90
2022-08-11T15:14:08.291Z,1.30
2022-08-11T15:16:55.578Z,2.00
2022-08-11T15:19:27.519Z,1.47
2022-08-11T15:22:13.317Z,1.60
2022-08-11T15:24:41.607Z,1.53
2022-08-11T15:27:31.337Z,1.87
2022-08-11T15:30:32.475Z,1.40
2022-08-11T15:33:22.156Z,2.17
2022-08-11T15:36:08.138Z,2.37
2022-08-11T15:38:37.460Z,1.60
2022-08-11T15:41:24.440Z,1.90
2022-08-11T15:44:13.091Z,1.60
2022-08-11T15:46:43.901Z,1.47
2022-08-11T15:49:21.971Z,1.40
2022-08-11T15:51:52.426Z,1.80
2022-08-11T15:54:23.460Z,1.30
2022-08-11T15:56:53.207Z,1.90
2022-08-11T15:59:43.058Z,1.60
2022-08-11T16:02:32.197Z,2.00
2022-08-11T16:05:02.537Z,2.27
2022-08-11T16:07:40.472Z,2.00
2022-08-11T16:10:18.661Z,2.07
2022-08-11T16:13:21.890Z,1.60
2022-08-11T16:16:14.345Z,1.80
2022-08-11T16:18:47.249Z,2.60
2022-08-11T16:21:33.487Z,1.73
2022-08-11T16:24:07.476Z,1.97
2022-08-11T16:27:09.353Z,2.23
2022-08-11T16:29:28.238Z,1.73
2022-08-11T16:32:15.738Z,2.03
2022-08-11T16:35:03.157Z,2.00
2022-08-11T16:37:50.267Z,2.50
2022-08-11T16:40:19.387Z,1.87
2022-08-11T16:43:10.049Z,2.27
2022-08-11T16:45:58.843Z,1.73
2022-08-11T16:48:35.403Z,2.80
2022-08-11T16:51:06.760Z,2.00
2022-08-11T16:53:54.908Z,2.00
2022-08-11T16:56:26.942Z,2.00
2022-08-11T16:59:15.329Z,2.20
2022-08-11T17:01:46.532Z,2.60
2022-08-11T17:04:40.185Z,2.10
2022-08-11T17:07:42.385Z,2.10
2022-08-11T17:10:51.156Z,1.90
2022-08-11T17:13:35.584Z,2.20
2022-08-11T17:16:07.850Z,1.80
2022-08-11T17:18:44.343Z,2.23
2022-08-11T17:21:20.195Z,2.30
2022-08-11T17:23:50.669Z,2.10
2022-08-11T17:26:25.642Z,2.27
2022-08-11T17:28:56.760Z,1.83
2022-08-11T17:31:43.667Z,2.50
2022-08-11T17:34:30.048Z,2.73
2022-08-11T17:37:00.637Z,2.07
2022-08-11T17:39:31.411Z,1.90
2022-08-11T17:42:17.782Z,2.57
2022-08-11T17:45:04.445Z,2.17
2022-08-11T17:47:51.108Z,2.27
2022-08-11T17:50:20.284Z,2.57
2022-08-11T17:53:07.512Z,2.33
2022-08-11T17:56:02.774Z,2.07
2022-08-11T17:58:51.795Z,2.30
2022-08-11T18:01:23.357Z,2.47
2022-08-11T18:03:54.591Z,2.60
2022-08-11T18:06:34.444Z,1.77
2022-08-11T18:09:29.222Z,2.50
2022-08-11T18:12:15.304Z,2.77
2022-08-11T18:15:04.571Z,3.47
2022-08-11T18:17:51.068Z,2.90
2022-08-11T18:20:37.433Z,2.17
2022-08-11T18:23:40.482Z,2.50
2022-08-11T18:26:36.753Z,2.07
2022-08-11T18:29:22.891Z,2.33
2022-08-11T18:32:09.003Z,2.50
2022-08-11T18:34:56.428Z,1.83
2022-08-11T18:37:45.227Z,2.20
2022-08-11T18:40:34.622Z,2.60
2022-08-11T18:43:27.164Z,3.20
2022-08-11T18:46:17.897Z,3.00
2022-08-11T18:49:14.493Z,2.40
2022-08-11T18:52:05.639Z,2.60
2022-08-11T18:54:53.730Z,2.17
2022-08-11T18:57:54.179Z,2.17
2022-08-11T19:00:42.754Z,2.80
2022-08-11T19:03:30.464Z,2.93
2022-08-11T19:06:39.263Z,2.10
2022-08-11T19:09:26.273Z,2.40
2022-08-11T19:12:12.514Z,2.57
2022-08-11T19:14:59.105Z,2.30
2022-08-11T19:17:46.878Z,2.50
2022-08-11T19:20:34.518Z,3.10
2022-08-11T19:23:22.035Z,3.60
2022-08-11T19:26:08.267Z,3.83
2022-08-11T19:28:55.899Z,5.07
2022-08-11T19:31:44.841Z,4.10
2022-08-11T19:34:32.696Z,3.77
2022-08-11T19:37:22.145Z,2.70
2022-08-11T19:40:11.096Z,2.47
2022-08-11T19:42:56.876Z,2.53
2022-08-11T19:45:42.964Z,3.07
2022-08-11T19:48:32.567Z,3.00
2022-08-11T19:51:20.299Z,2.90
2022-08-11T19:54:06.909Z,3.10
2022-08-11T19:56:53.028Z,2.37
2022-08-11T19:59:40.938Z,2.57
2022-08-11T20:02:27.131Z,2.93
2022-08-11T20:05:13.454Z,2.70
2022-08-11T20:08:00.913Z,3.87
2022-08-11T20:10:47.846Z,3.67
2022-08-11T20:13:34.657Z,3.57
2022-08-11T20:16:21.068Z,2.73
2022-08-11T20:19:08.316Z,2.70
2022-08-11T20:21:54.445Z,2.87
2022-08-11T20:24:41.753Z,2.50
2022-08-11T20:27:27.543Z,3.00
2022-08-11T20:30:15.289Z,3.07
2022-08-11T20:33:01.046Z,3.03
2022-08-11T20:35:47.463Z,2.47
2022-08-11T20:38:34.184Z,2.70
2022-08-11T20:41:22.005Z,2.93
2022-08-11T20:44:09.664Z,2.90
2022-08-11T20:46:57.136Z,3.57
2022-08-11T20:49:48.806Z,3.20
2022-08-11T20:52:39.487Z,3.30
2022-08-11T20:55:51.274Z,3.37
2022-08-11T21:01:42.168Z,2.70
2022-08-11T21:04:28.170Z,2.87
2022-08-11T21:07:23.590Z,3.33
2022-08-11T21:10:23.215Z,4.70
2022-08-11T21:13:25.728Z,3.20
2022-08-11T21:16:25.321Z,3.27
2022-08-11T21:19:16.653Z,2.70
2022-08-11T21:22:03.801Z,4.13
2022-08-11T21:24:51.094Z,2.63
2022-08-11T21:27:36.877Z,3.17
2022-08-11T21:30:23.847Z,3.20
2022-08-11T21:33:11.916Z,3.00
2022-08-11T21:35:57.883Z,3.70
2022-08-11T21:38:43.831Z,3.20
2022-08-11T21:41:29.817Z,3.20
2022-08-11T21:44:16.217Z,4.17
2022-08-11T21:47:02.269Z,2.90
2022-08-11T21:49:49.908Z,4.10
2022-08-11T21:52:36.127Z,2.90
2022-08-11T21:55:21.930Z,2.77
2022-08-11T21:58:08.033Z,2.70
2022-08-11T22:00:53.955Z,3.00
2022-08-11T22:03:49.288Z,2.97
2022-08-11T22:06:37.779Z,3.30
2022-08-11T22:09:23.237Z,3.03
2022-08-11T22:12:34.375Z,3.43
2022-08-11T22:15:14.867Z,3.97
2022-08-11T22:18:00.407Z,2.80
2022-08-11T22:20:47.546Z,3.83
2022-08-11T22:23:36.275Z,3.53
2022-08-11T22:26:23.470Z,3.40
2022-08-11T22:29:10.127Z,3.90
2022-08-11T22:31:56.586Z,3.73
2022-08-11T22:34:52.822Z,4.40
2022-08-11T22:37:39.556Z,5.17
2022-08-11T22:40:28.524Z,3.77
2022-08-11T22:43:14.276Z,3.63
2022-08-11T22:46:00.183Z,3.40
2022-08-11T22:48:48.153Z,3.13
2022-08-11T22:51:34.439Z,3.20
2022-08-11T22:54:21.304Z,3.40
2022-08-11T22:57:09.164Z,3.90
2022-08-11T22:59:55.761Z,2.90
2022-08-11T23:02:42.146Z,2.50
2022-08-11T23:05:28.644Z,3.00
2022-08-11T23:08:14.815Z,4.03
2022-08-11T23:11:00.714Z,3.00
2022-08-11T23:13:47.936Z,3.70
2022-08-11T23:16:34.260Z,2.33
2022-08-11T23:20:09.776Z,3.30
2022-08-11T23:22:36.965Z,2.60
2022-08-11T23:25:33.255Z,2.73
2022-08-11T23:28:21.048Z,2.50
2022-08-11T23:31:08.344Z,2.23
2022-08-11T23:33:56.735Z,3.77
2022-08-11T23:36:47.663Z,2.50
2022-08-11T23:39:33.829Z,2.70
2022-08-11T23:42:19.672Z,2.43
2022-08-11T23:45:09.684Z,4.43
2022-08-11T23:47:57.825Z,2.87
2022-08-11T23:50:44.204Z,3.40
2022-08-11T23:53:31.042Z,2.50
2022-08-11T23:56:16.856Z,2.60
2022-08-11T23:59:02.738Z,3.40
